createdAt,value
2018-04-15T00:00:37.538Z,66.70
2018-04-15T00:01:37.511Z,64.10
2018-04-15T00:02:37.494Z,65.70
2018-04-15T00:03:37.478Z,61.20
2018-04-15T00:04:37.478Z,61.50
2018-04-15T00:05:37.449Z,64.40
2018-04-15T00:06:37.449Z,65.40
2018-04-15T00:07:37.409Z,64.80
2018-04-15T00:08:37.389Z,65.30
2018-04-15T00:09:37.377Z,65.00
2018-04-15T00:10:37.366Z,61.50
2018-04-15T00:11:37.344Z,65.40
2018-04-15T00:12:37.320Z,66.20
2018-04-15T00:13:37.310Z,65.00
2018-04-15T00:14:37.289Z,67.40
2018-04-15T00:15:37.278Z,61.40
2018-04-15T00:16:37.253Z,63.00
2018-04-15T00:17:37.233Z,63.90
2018-04-15T00:18:37.229Z,59.70
2018-04-15T00:19:37.201Z,64.00
2018-04-15T00:20:37.189Z,68.00
2018-04-15T00:21:37.167Z,60.80
2018-04-15T00:22:37.150Z,63.10
2018-04-15T00:23:37.133Z,66.20
2018-04-15T00:24:37.122Z,67.00
2018-04-15T00:25:37.099Z,66.20
2018-04-15T00:26:37.142Z,67.00
2018-04-15T00:27:37.071Z,62.60
2018-04-15T00:28:37.052Z,65.70
2018-04-15T00:29:37.033Z,65.20
2018-04-15T00:30:37.010Z,65.20
2018-04-15T00:31:36.998Z,65.00
2018-04-15T00:32:36.986Z,63.40
2018-04-15T00:33:36.961Z,67.60
2018-04-15T00:34:36.949Z,66.10
2018-04-15T00:35:36.946Z,64.70
2018-04-15T00:36:36.912Z,64.00
2018-04-15T00:37:36.893Z,63.00
2018-04-15T00:38:36.878Z,63.60
2018-04-15T00:39:36.857Z,64.00
2018-04-15T00:40:36.839Z,63.00
2018-04-15T00:41:36.821Z,66.30
2018-04-15T00:42:36.806Z,65.40
2018-04-15T00:43:36.787Z,65.20
2018-04-15T00:44:36.770Z,63.70
2018-04-15T00:45:36.856Z,60.30
2018-04-15T00:46:36.734Z,63.60
2018-04-15T00:47:36.717Z,65.70
2018-04-15T00:48:36.704Z,68.20
2018-04-15T00:49:36.684Z,60.80
2018-04-15T00:50:36.677Z,66.80
2018-04-15T00:51:36.653Z,66.70
2018-04-15T00:52:36.633Z,63.60
2018-04-15T00:53:36.613Z,66.00
2018-04-15T00:54:36.600Z,69.50
2018-04-15T00:55:36.584Z,68.40
2018-04-15T00:56:36.564Z,60.80
2018-04-15T00:57:36.545Z,69.80
2018-04-15T00:58:36.529Z,63.10
2018-04-15T00:59:36.520Z,67.50
2018-04-15T01:00:36.503Z,61.00
2018-04-15T01:01:36.497Z,63.80
2018-04-15T01:02:36.465Z,69.50
2018-04-15T01:03:36.443Z,66.50
2018-04-15T01:04:36.430Z,63.60
2018-04-15T01:05:36.408Z,61.60
2018-04-15T01:06:36.394Z,61.60
2018-04-15T01:07:36.377Z,71.20
2018-04-15T01:08:36.360Z,65.30
2018-04-15T01:09:36.443Z,63.90
2018-04-15T01:10:36.330Z,67.10
2018-04-15T01:11:36.307Z,62.20
2018-04-15T01:12:36.297Z,61.90
2018-04-15T01:13:36.274Z,63.20
2018-04-15T01:14:36.257Z,65.00
2018-04-15T01:15:36.249Z,67.50
2018-04-15T01:16:36.225Z,62.40
2018-04-15T01:17:36.206Z,63.90
2018-04-15T01:18:36.187Z,61.40
2018-04-15T01:19:36.182Z,67.10
2018-04-15T01:20:36.153Z,60.70
2018-04-15T01:21:36.136Z,64.10
2018-04-15T01:22:36.120Z,64.40
2018-04-15T01:23:36.111Z,61.00
2018-04-15T01:24:36.084Z,62.40
2018-04-15T01:25:36.090Z,59.30
2018-04-15T01:26:36.059Z,60.70
2018-04-15T01:27:36.034Z,61.90
2018-04-15T01:28:36.024Z,58.90
2018-04-15T01:29:35.997Z,63.80
2018-04-15T01:30:36.001Z,66.70
2018-04-15T01:31:35.963Z,63.90
2018-04-15T01:32:35.954Z,62.50
2018-04-15T01:33:35.931Z,67.20
2018-04-15T01:34:35.914Z,61.60
2018-04-15T01:35:35.893Z,62.50
2018-04-15T01:36:35.878Z,62.60
2018-04-15T01:37:35.865Z,62.70
2018-04-15T01:38:35.850Z,65.40
2018-04-15T01:39:35.826Z,68.40
2018-04-15T01:40:35.812Z,62.90
2018-04-15T01:41:35.792Z,62.80
2018-04-15T01:42:35.777Z,63.60
2018-04-15T01:43:35.762Z,68.40
2018-04-15T01:44:35.740Z,64.90
2018-04-15T01:45:35.719Z,65.20
2018-04-15T01:46:35.704Z,62.30
2018-04-15T01:47:35.684Z,63.70
2018-04-15T01:48:35.669Z,69.10
2018-04-15T01:49:35.651Z,67.60
2018-04-15T01:50:35.642Z,63.20
2018-04-15T01:51:35.624Z,64.50
2018-04-15T01:52:35.597Z,68.30
2018-04-15T01:53:35.579Z,67.60
2018-04-15T01:54:35.563Z,70.90
2018-04-15T01:55:35.577Z,69.50
2018-04-15T01:56:35.529Z,71.40
2018-04-15T01:57:35.525Z,66.50
2018-04-15T01:58:35.505Z,72.20
2018-04-15T01:59:35.477Z,68.30
2018-04-15T02:00:35.484Z,70.30
2018-04-15T02:01:35.447Z,71.10
2018-04-15T02:02:35.427Z,69.20
2018-04-15T02:03:35.410Z,74.50
2018-04-15T02:04:35.391Z,71.20
2018-04-15T02:05:35.375Z,72.90
2018-04-15T02:06:35.362Z,67.20
2018-04-15T02:07:35.342Z,72.60
2018-04-15T02:08:35.333Z,72.80
2018-04-15T02:09:35.307Z,73.20
2018-04-15T02:10:35.294Z,69.80
2018-04-15T02:11:35.271Z,74.00
2018-04-15T02:12:35.256Z,71.60
2018-04-15T02:13:35.237Z,71.50
2018-04-15T02:14:35.221Z,74.80
2018-04-15T02:15:35.214Z,74.10
2018-04-15T02:16:35.187Z,70.40
2018-04-15T02:17:35.169Z,75.20
2018-04-15T02:18:35.151Z,76.80
2018-04-15T02:19:35.137Z,76.40
2018-04-15T02:20:35.124Z,79.50
2018-04-15T02:21:35.102Z,79.50
2018-04-15T02:22:35.087Z,79.10
2018-04-15T02:23:35.069Z,79.20
2018-04-15T02:24:35.119Z,76.60
2018-04-15T02:25:35.032Z,76.00
2018-04-15T02:26:35.017Z,80.50
2018-04-15T02:27:35.054Z,82.50
2018-04-15T02:28:34.986Z,84.10
2018-04-15T02:29:34.966Z,81.90
2018-04-15T02:30:34.951Z,82.50
2018-04-15T02:31:34.931Z,83.60
2018-04-15T02:32:34.918Z,79.30
2018-04-15T02:33:34.906Z,77.20
2018-04-15T02:34:34.879Z,85.70
2018-04-15T02:35:34.866Z,83.50
2018-04-15T02:36:34.850Z,86.70
2018-04-15T02:37:34.828Z,82.30
2018-04-15T02:38:34.817Z,82.40
2018-04-15T02:39:34.797Z,84.20
2018-04-15T02:40:34.776Z,86.30
2018-04-15T02:41:34.758Z,86.50
2018-04-15T02:42:34.746Z,80.30
2018-04-15T02:43:34.830Z,85.40
2018-04-15T02:44:34.710Z,89.90
2018-04-15T02:45:34.709Z,90.80
2018-04-15T02:46:34.677Z,87.40
2018-04-15T02:47:34.667Z,90.70
2018-04-15T02:48:34.644Z,92.50
2018-04-15T02:49:34.624Z,86.10
2018-04-15T02:50:34.614Z,91.40
2018-04-15T02:51:34.593Z,87.10
2018-04-15T02:52:34.573Z,89.10
2018-04-15T02:53:34.555Z,86.90
2018-04-15T02:54:34.556Z,86.50
2018-04-15T02:55:34.526Z,88.80
2018-04-15T02:56:34.504Z,90.80
2018-04-15T02:57:34.489Z,91.70
2018-04-15T02:58:34.484Z,89.60
2018-04-15T02:59:34.576Z,92.30
2018-04-15T03:00:34.442Z,94.60
2018-04-15T03:01:34.434Z,94.40
2018-04-15T03:02:34.443Z,84.00
2018-04-15T03:03:34.388Z,90.40
2018-04-15T03:04:34.380Z,93.50
2018-04-15T03:05:34.351Z,85.20
2018-04-15T03:06:34.336Z,92.00
2018-04-15T03:07:34.321Z,87.00
2018-04-15T03:08:34.308Z,89.40
2018-04-15T03:09:34.284Z,90.70
2018-04-15T03:10:34.285Z,99.60
2018-04-15T03:11:34.251Z,93.60
2018-04-15T03:12:34.233Z,96.70
2018-04-15T03:13:34.215Z,94.30
2018-04-15T03:14:34.226Z,95.20
2018-04-15T03:15:34.181Z,95.80
2018-04-15T03:16:34.166Z,91.00
2018-04-15T03:17:34.151Z,98.00
2018-04-15T03:18:34.134Z,99.70
2018-04-15T03:19:34.113Z,92.10
2018-04-15T03:20:34.101Z,94.60
2018-04-15T03:21:34.098Z,96.30
2018-04-15T03:22:34.064Z,97.30
2018-04-15T03:23:34.043Z,89.30
2018-04-15T03:24:34.040Z,92.90
2018-04-15T03:25:34.011Z,92.00
2018-04-15T03:26:34.041Z,96.80
2018-04-15T03:27:33.980Z,93.70
2018-04-15T03:28:33.978Z,97.80
2018-04-15T03:29:33.959Z,96.10
2018-04-15T03:30:33.931Z,99.20
2018-04-15T03:31:33.915Z,100.90
2018-04-15T03:32:33.889Z,94.90
2018-04-15T03:33:33.879Z,96.90
2018-04-15T03:34:33.857Z,97.40
2018-04-15T03:35:33.840Z,104.10
2018-04-15T03:36:33.822Z,102.00
2018-04-15T03:37:33.813Z,105.70
2018-04-15T03:38:33.787Z,102.30
2018-04-15T03:39:33.773Z,310.80
2018-04-15T03:40:33.767Z,109.30
2018-04-15T03:41:33.742Z,99.00
2018-04-15T03:42:33.809Z,102.10
2018-04-15T03:43:33.708Z,103.80
2018-04-15T03:44:33.687Z,105.60
2018-04-15T03:45:33.677Z,99.40
2018-04-15T03:46:33.656Z,116.30
2018-04-15T03:47:33.638Z,105.40
2018-04-15T03:48:33.617Z,105.80
2018-04-15T03:49:33.599Z,105.90
2018-04-15T03:50:33.582Z,107.90
2018-04-15T03:51:33.566Z,115.80
2018-04-15T03:52:33.556Z,110.40
2018-04-15T03:53:33.530Z,114.90
2018-04-15T03:54:33.515Z,111.30
2018-04-15T03:55:33.501Z,116.90
2018-04-15T03:56:33.481Z,113.50
2018-04-15T03:57:33.463Z,116.40
2018-04-15T03:58:33.445Z,111.80
2018-04-15T03:59:33.428Z,114.00
2018-04-15T04:00:33.410Z,114.80
2018-04-15T04:01:33.450Z,120.40
2018-04-15T04:02:33.394Z,116.30
2018-04-15T04:03:33.360Z,105.90
2018-04-15T04:04:33.344Z,108.30
2018-04-15T04:05:33.325Z,111.50
2018-04-15T04:06:33.319Z,114.30
2018-04-15T04:07:33.323Z,110.90
2018-04-15T04:08:33.273Z,119.20
2018-04-15T04:09:33.358Z,121.80
2018-04-15T04:10:33.237Z,121.50
2018-04-15T04:11:33.223Z,123.20
2018-04-15T04:12:33.254Z,120.20
2018-04-15T04:13:33.182Z,125.60
2018-04-15T04:14:33.166Z,130.50
2018-04-15T04:15:33.153Z,129.20
2018-04-15T04:16:33.133Z,122.80
2018-04-15T04:17:33.112Z,121.80
2018-04-15T04:18:33.095Z,129.30
2018-04-15T04:19:33.076Z,123.80
2018-04-15T04:20:33.069Z,117.50
2018-04-15T04:21:33.060Z,128.70
2018-04-15T04:22:33.026Z,134.00
2018-04-15T04:23:33.007Z,127.60
2018-04-15T04:24:32.990Z,122.70
2018-04-15T04:25:32.982Z,123.30
2018-04-15T04:26:32.959Z,122.40
2018-04-15T04:27:32.935Z,129.50
2018-04-15T04:28:33.017Z,131.20
2018-04-15T04:29:32.897Z,145.50
2018-04-15T04:30:32.882Z,140.10
2018-04-15T04:31:32.880Z,139.20
2018-04-15T04:32:32.845Z,129.50
2018-04-15T04:33:32.826Z,145.50
2018-04-15T04:34:32.821Z,139.30
2018-04-15T04:35:32.794Z,141.50
2018-04-15T04:36:32.776Z,156.10
2018-04-15T04:37:32.758Z,148.70
2018-04-15T04:38:32.737Z,149.50
2018-04-15T04:39:32.722Z,143.80
2018-04-15T04:40:32.710Z,157.70
2018-04-15T04:41:32.681Z,158.00
2018-04-15T04:42:32.662Z,153.70
2018-04-15T04:43:32.645Z,156.80
2018-04-15T04:44:32.656Z,162.30
2018-04-15T04:45:32.610Z,158.40
2018-04-15T04:46:32.589Z,160.90
2018-04-15T04:47:32.670Z,157.50
2018-04-15T04:48:32.565Z,164.20
2018-04-15T04:49:32.535Z,147.30
2018-04-15T04:50:32.524Z,153.20
2018-04-15T04:51:32.498Z,161.80
2018-04-15T04:52:32.489Z,163.70
2018-04-15T04:53:32.459Z,173.00
2018-04-15T04:54:32.451Z,168.60
2018-04-15T04:55:32.421Z,173.70
2018-04-15T04:56:32.425Z,165.60
2018-04-15T04:57:32.388Z,165.20
2018-04-15T04:58:32.370Z,168.60
2018-04-15T04:59:32.369Z,166.90
2018-04-15T05:00:32.368Z,173.50
2018-04-15T05:01:32.312Z,185.80
2018-04-15T05:02:32.298Z,183.00
2018-04-15T05:03:32.277Z,181.80
2018-04-15T05:04:32.263Z,180.30
2018-04-15T05:05:32.241Z,179.60
2018-04-15T05:06:32.220Z,170.30
2018-04-15T05:07:32.202Z,181.20
2018-04-15T05:08:32.187Z,164.10
2018-04-15T05:09:32.168Z,178.40
2018-04-15T05:10:32.149Z,167.40
2018-04-15T05:11:32.239Z,163.10
2018-04-15T05:12:32.112Z,182.40
2018-04-15T05:13:32.091Z,163.90
2018-04-15T05:14:32.079Z,177.20
2018-04-15T05:15:32.056Z,187.30
2018-04-15T05:16:32.046Z,184.00
2018-04-15T05:17:32.021Z,163.00
2018-04-15T05:18:32.035Z,177.50
2018-04-15T05:19:31.990Z,172.60
2018-04-15T05:20:31.968Z,185.50
2018-04-15T05:21:31.953Z,181.70
2018-04-15T05:22:31.927Z,181.10
2018-04-15T05:23:31.911Z,189.60
2018-04-15T05:24:31.895Z,181.30
2018-04-15T05:25:31.874Z,167.70
2018-04-15T05:26:31.873Z,172.10
2018-04-15T05:27:31.837Z,181.50
2018-04-15T05:28:31.821Z,180.90
2018-04-15T05:29:31.804Z,183.20
2018-04-15T05:30:31.794Z,169.60
2018-04-15T05:31:31.768Z,161.20
2018-04-15T05:32:31.748Z,161.30
2018-04-15T05:33:31.756Z,186.30
2018-04-15T05:34:31.714Z,189.60
2018-04-15T05:35:31.725Z,202.50
2018-04-15T05:36:31.686Z,200.70
2018-04-15T05:37:31.710Z,203.80
2018-04-15T05:38:31.640Z,204.60
2018-04-15T05:39:31.624Z,211.50
2018-04-15T05:40:31.603Z,213.30
2018-04-15T05:41:31.583Z,199.80
2018-04-15T05:42:31.565Z,211.40
2018-04-15T05:43:31.549Z,217.40
2018-04-15T05:44:31.532Z,224.90
2018-04-15T05:45:31.517Z,207.20
2018-04-15T05:46:31.494Z,199.40
2018-04-15T05:47:31.478Z,209.90
2018-04-15T05:48:31.459Z,225.70
2018-04-15T05:49:31.451Z,215.80
2018-04-15T05:50:31.423Z,232.70
2018-04-15T05:51:31.403Z,209.90
2018-04-15T05:52:31.391Z,225.00
2018-04-15T05:53:31.382Z,261.50
2018-04-15T05:54:31.344Z,250.60
2018-04-15T05:55:31.327Z,256.30
2018-04-15T05:56:31.313Z,233.50
2018-04-15T05:57:31.455Z,229.70
2018-04-15T05:58:31.275Z,237.40
2018-04-15T05:59:31.314Z,236.60
2018-04-15T06:00:31.270Z,238.40
2018-04-15T06:01:31.218Z,188.10
2018-04-15T06:02:31.201Z,199.00
2018-04-15T06:03:31.200Z,204.20
2018-04-15T06:04:31.163Z,201.40
2018-04-15T06:05:31.143Z,201.30
2018-04-15T06:06:31.125Z,197.90
2018-04-15T06:07:31.115Z,216.00
2018-04-15T06:08:31.090Z,209.40
2018-04-15T06:09:31.071Z,203.20
2018-04-15T06:10:31.052Z,185.50
2018-04-15T06:11:31.039Z,208.60
2018-04-15T06:12:31.022Z,202.40
2018-04-15T06:13:30.999Z,198.40
2018-04-15T06:14:30.985Z,206.30
2018-04-15T06:15:30.998Z,221.30
2018-04-15T06:16:30.961Z,217.90
2018-04-15T06:17:30.929Z,234.10
2018-04-15T06:18:30.912Z,230.00
2018-04-15T06:19:30.905Z,191.10
2018-04-15T06:20:30.878Z,198.20
2018-04-15T06:21:30.854Z,216.00
2018-04-15T06:22:30.838Z,189.90
2018-04-15T06:23:30.821Z,199.50
2018-04-15T06:24:30.805Z,209.00
2018-04-15T06:25:30.783Z,196.40
2018-04-15T06:26:30.777Z,213.60
2018-04-15T06:27:30.754Z,225.40
2018-04-15T06:28:30.738Z,187.80
2018-04-15T06:29:30.713Z,186.00
2018-04-15T06:30:30.695Z,187.70
2018-04-15T06:31:30.678Z,184.90
2018-04-15T06:32:30.658Z,180.60
2018-04-15T06:33:30.648Z,174.60
2018-04-15T06:34:30.622Z,179.00
2018-04-15T06:35:30.742Z,205.40
2018-04-15T06:36:30.588Z,193.20
2018-04-15T06:37:30.570Z,194.40
2018-04-15T06:38:30.657Z,189.90
2018-04-15T06:39:30.545Z,177.00
2018-04-15T06:40:30.517Z,181.10
2018-04-15T06:41:30.503Z,177.70
2018-04-15T06:42:30.479Z,195.80
2018-04-15T06:43:30.463Z,205.90
2018-04-15T06:44:30.447Z,203.30
2018-04-15T06:45:30.428Z,183.20
2018-04-15T06:46:30.566Z,197.20
2018-04-15T06:47:30.392Z,211.40
2018-04-15T06:48:30.375Z,217.30
2018-04-15T06:49:30.361Z,205.70
2018-04-15T06:50:30.341Z,217.70
2018-04-15T06:51:30.323Z,213.20
2018-04-15T06:52:30.307Z,232.20
2018-04-15T06:53:30.285Z,204.80
2018-04-15T06:54:30.270Z,211.20
2018-04-15T06:55:30.259Z,205.00
2018-04-15T06:56:30.236Z,203.20
2018-04-15T06:57:30.215Z,203.60
2018-04-15T06:58:30.205Z,191.00
2018-04-15T06:59:30.192Z,204.80
2018-04-15T07:00:30.163Z,174.00
2018-04-15T07:01:30.201Z,187.70
2018-04-15T07:02:30.286Z,195.90
2018-04-15T07:03:30.119Z,190.50
2018-04-15T07:04:30.097Z,203.30
2018-04-15T07:05:30.078Z,197.70
2018-04-15T07:06:30.061Z,203.20
2018-04-15T07:07:30.040Z,196.60
2018-04-15T07:08:30.022Z,203.40
2018-04-15T07:09:30.072Z,188.60
2018-04-15T07:10:29.992Z,183.60
2018-04-15T07:11:29.973Z,185.40
2018-04-15T07:12:29.957Z,174.50
2018-04-15T07:13:29.933Z,202.20
2018-04-15T07:14:29.921Z,177.50
2018-04-15T07:15:29.903Z,169.00
2018-04-15T07:16:29.944Z,189.80
2018-04-15T07:17:29.867Z,174.50
2018-04-15T07:18:29.934Z,184.90
2018-04-15T07:19:29.831Z,172.60
2018-04-15T07:20:29.816Z,172.00
2018-04-15T07:21:29.804Z,186.20
2018-04-15T07:22:29.782Z,176.00
2018-04-15T07:23:29.767Z,185.80
2018-04-15T07:24:29.762Z,193.70
2018-04-15T07:25:29.737Z,181.10
2018-04-15T07:26:29.711Z,170.60
2018-04-15T07:27:29.698Z,155.70
2018-04-15T07:28:29.693Z,153.10
2018-04-15T07:29:29.670Z,158.90
2018-04-15T07:30:29.661Z,149.20
2018-04-15T07:31:29.633Z,162.00
2018-04-15T07:32:29.621Z,151.50
2018-04-15T07:33:29.591Z,151.60
2018-04-15T07:34:29.576Z,155.00
2018-04-15T07:35:29.560Z,160.20
2018-04-15T07:36:29.603Z,159.80
2018-04-15T07:37:29.593Z,140.60
2018-04-15T07:38:29.513Z,148.90
2018-04-15T07:39:29.507Z,156.90
2018-04-15T07:40:29.522Z,151.50
2018-04-15T07:41:29.471Z,149.90
2018-04-15T07:42:29.450Z,141.40
2018-04-15T07:43:29.424Z,135.10
2018-04-15T07:44:29.412Z,132.50
2018-04-15T07:45:29.394Z,129.70
2018-04-15T07:46:29.373Z,138.90
2018-04-15T07:47:29.365Z,141.30
2018-04-15T07:48:29.353Z,124.20
2018-04-15T07:49:29.324Z,115.30
2018-04-15T07:50:29.338Z,110.70
2018-04-15T07:51:29.289Z,110.70
2018-04-15T07:52:29.281Z,107.10
2018-04-15T07:53:29.268Z,93.40
2018-04-15T07:54:29.238Z,103.80
2018-04-15T07:55:29.225Z,93.70
2018-04-15T07:56:29.208Z,84.50
2018-04-15T07:57:29.205Z,96.80
2018-04-15T07:58:29.175Z,90.80
2018-04-15T07:59:29.160Z,78.60
2018-04-15T08:00:29.149Z,82.50
2018-04-15T08:01:29.147Z,79.20
2018-04-15T08:02:29.110Z,82.50
2018-04-15T08:03:29.095Z,82.00
2018-04-15T08:04:29.161Z,81.00
2018-04-15T08:05:29.071Z,78.60
2018-04-15T08:06:29.048Z,69.10
2018-04-15T08:07:29.084Z,68.30
2018-04-15T08:08:29.013Z,63.60
2018-04-15T08:09:28.999Z,73.80
2018-04-15T08:10:28.981Z,65.60
2018-04-15T08:11:28.966Z,58.80
2018-04-15T08:12:28.962Z,62.20
2018-04-15T08:13:28.937Z,58.00
2018-04-15T08:14:28.923Z,59.80
2018-04-15T08:15:28.907Z,55.90
2018-04-15T08:16:28.892Z,60.30
2018-04-15T08:17:28.879Z,63.10
2018-04-15T08:18:28.858Z,61.20
2018-04-15T08:19:28.845Z,52.80
2018-04-15T08:20:28.845Z,53.60
2018-04-15T08:21:28.811Z,56.90
2018-04-15T08:22:28.800Z,53.50
2018-04-15T08:23:28.812Z,48.30
2018-04-15T08:24:28.770Z,42.60
2018-04-15T08:25:28.765Z,40.60
2018-04-15T08:26:28.753Z,40.60
2018-04-15T08:27:28.730Z,35.80
2018-04-15T08:28:28.719Z,36.70
2018-04-15T08:29:28.712Z,36.30
2018-04-15T08:30:28.696Z,34.80
2018-04-15T08:31:28.675Z,32.30
2018-04-15T08:32:28.663Z,31.90
2018-04-15T08:33:28.653Z,33.90
2018-04-15T08:34:28.640Z,29.30
2018-04-15T08:35:28.635Z,29.20
2018-04-15T08:36:28.634Z,32.40
2018-04-15T08:37:28.607Z,30.40
2018-04-15T08:38:28.593Z,25.20
2018-04-15T08:39:28.583Z,25.90
2018-04-15T08:40:28.578Z,24.60
2018-04-15T08:41:28.553Z,26.70
2018-04-15T08:42:28.557Z,23.60
2018-04-15T08:43:28.532Z,27.10
2018-04-15T08:44:28.524Z,27.00
2018-04-15T08:45:28.513Z,27.10
2018-04-15T08:46:28.508Z,25.40
2018-04-15T08:47:28.488Z,23.10
2018-04-15T08:48:28.477Z,22.70
2018-04-15T08:49:28.468Z,22.20
2018-04-15T08:50:28.465Z,21.60
2018-04-15T08:51:28.445Z,24.60
2018-04-15T08:52:28.435Z,25.30
2018-04-15T08:53:28.421Z,19.50
2018-04-15T08:54:28.483Z,18.10
2018-04-15T08:55:28.408Z,17.10
2018-04-15T08:56:28.402Z,20.70
2018-04-15T08:57:28.414Z,18.60
2018-04-15T08:58:28.371Z,18.80
2018-04-15T08:59:28.359Z,18.40
2018-04-15T09:00:28.345Z,19.30
2018-04-15T09:01:28.341Z,18.10
2018-04-15T09:02:28.337Z,17.30
2018-04-15T09:03:28.319Z,16.50
2018-04-15T09:04:28.302Z,20.10
2018-04-15T09:05:28.290Z,17.30
2018-04-15T09:06:28.280Z,18.80
2018-04-15T09:07:28.270Z,21.70
2018-04-15T09:08:28.253Z,17.90
2018-04-15T09:09:28.258Z,16.40
2018-04-15T09:10:28.302Z,18.80
2018-04-15T09:11:28.224Z,19.60
2018-04-15T09:12:28.213Z,17.20
2018-04-15T09:13:28.204Z,17.10
2018-04-15T09:14:28.208Z,16.20
2018-04-15T09:15:28.183Z,15.50
2018-04-15T09:16:28.182Z,16.50
2018-04-15T09:17:28.171Z,14.10
2018-04-15T09:18:28.152Z,15.40
2018-04-15T09:19:28.150Z,16.30
2018-04-15T09:20:28.142Z,14.50
2018-04-15T09:21:28.128Z,13.80
2018-04-15T09:22:28.120Z,15.60
2018-04-15T09:23:28.236Z,15.40
2018-04-15T09:24:28.107Z,15.70
2018-04-15T09:25:28.100Z,15.60
2018-04-15T09:26:28.128Z,14.50
2018-04-15T09:27:28.070Z,14.70
2018-04-15T09:28:28.069Z,13.30
2018-04-15T09:29:28.053Z,14.20
2018-04-15T09:30:28.047Z,12.80
2018-04-15T09:31:28.039Z,11.20
2018-04-15T09:32:28.039Z,12.40
2018-04-15T09:33:28.037Z,9.60
2018-04-15T09:34:28.020Z,9.70
2018-04-15T09:35:28.017Z,10.10
2018-04-15T09:36:28.012Z,8.60
2018-04-15T09:37:28.010Z,9.00
2018-04-15T09:38:27.992Z,9.70
2018-04-15T09:39:28.014Z,10.30
2018-04-15T09:40:27.982Z,9.90
2018-04-15T09:41:27.969Z,9.80
2018-04-15T09:42:27.976Z,8.00
2018-04-15T09:43:27.959Z,8.30
2018-04-15T09:44:27.954Z,9.20
2018-04-15T09:45:27.947Z,10.00
2018-04-15T09:46:28.027Z,8.30
2018-04-15T09:47:27.934Z,9.00
2018-04-15T09:48:27.931Z,8.60
2018-04-15T09:49:27.922Z,9.40
2018-04-15T09:50:27.923Z,7.30
2018-04-15T09:51:27.924Z,7.20
2018-04-15T09:52:27.918Z,6.90
2018-04-15T09:53:27.912Z,8.30
2018-04-15T09:54:27.915Z,6.80
2018-04-15T09:55:27.906Z,7.30
2018-04-15T09:56:27.906Z,6.60
2018-04-15T09:57:28.013Z,6.50
2018-04-15T09:58:27.898Z,6.50
2018-04-15T09:59:27.894Z,7.10
2018-04-15T10:00:27.904Z,7.90
2018-04-15T10:01:27.891Z,6.80
2018-04-15T10:02:27.889Z,7.00
2018-04-15T10:03:27.892Z,7.80
2018-04-15T10:04:27.884Z,8.50
2018-04-15T10:05:27.886Z,8.30
2018-04-15T10:06:27.882Z,8.30
2018-04-15T10:07:27.889Z,8.60
2018-04-15T10:08:27.873Z,7.80
2018-04-15T10:09:27.875Z,10.30
2018-04-15T10:10:27.885Z,8.20
2018-04-15T10:11:27.864Z,9.10
2018-04-15T10:12:27.863Z,9.20
2018-04-15T10:13:27.918Z,8.30
2018-04-15T10:14:27.861Z,9.90
2018-04-15T10:15:27.871Z,10.20
2018-04-15T10:16:27.855Z,12.10
2018-04-15T10:17:27.863Z,9.60
2018-04-15T10:18:27.872Z,10.50
2018-04-15T10:19:27.853Z,10.20
2018-04-15T10:20:27.859Z,9.10
2018-04-15T10:21:27.839Z,10.90
2018-04-15T10:22:27.836Z,9.30
2018-04-15T10:23:27.848Z,9.80
2018-04-15T10:24:27.831Z,11.20
2018-04-15T10:25:27.819Z,11.10
2018-04-15T10:26:27.871Z,10.80
2018-04-15T10:27:27.812Z,11.90
2018-04-15T10:28:27.808Z,9.60
2018-04-15T10:29:27.793Z,9.50
2018-04-15T10:30:27.795Z,10.20
2018-04-15T10:31:27.781Z,9.50
2018-04-15T10:32:27.773Z,9.30
2018-04-15T10:33:27.767Z,8.40
2018-04-15T10:34:27.761Z,9.40
2018-04-15T10:35:27.757Z,11.10
2018-04-15T10:36:27.832Z,9.80
2018-04-15T10:37:27.743Z,8.50
2018-04-15T10:38:27.727Z,8.50
2018-04-15T10:39:27.809Z,10.40
2018-04-15T10:40:27.736Z,9.50
2018-04-15T10:41:27.716Z,10.90
2018-04-15T10:42:27.708Z,9.70
2018-04-15T10:43:27.714Z,7.70
2018-04-15T10:44:27.694Z,9.40
2018-04-15T10:45:27.678Z,11.90
2018-04-15T10:46:27.671Z,8.50
2018-04-15T10:47:27.679Z,7.00
2018-04-15T10:48:27.658Z,5.90
2018-04-15T10:49:27.649Z,6.30
2018-04-15T10:50:27.641Z,5.90
2018-04-15T10:51:27.631Z,5.80
2018-04-15T10:52:27.635Z,5.80
2018-04-15T10:53:27.621Z,7.30
2018-04-15T10:54:27.626Z,7.70
2018-04-15T10:55:27.614Z,7.20
2018-04-15T10:56:27.604Z,6.70
2018-04-15T10:57:27.629Z,5.40
2018-04-15T10:58:27.593Z,5.70
2018-04-15T10:59:27.591Z,6.30
2018-04-15T11:00:27.652Z,7.30
2018-04-15T11:01:27.594Z,6.30
2018-04-15T11:02:27.588Z,5.90
2018-04-15T11:03:27.577Z,6.40
2018-04-15T11:04:27.568Z,5.40
2018-04-15T11:05:27.557Z,5.00
2018-04-15T11:06:27.564Z,4.90
2018-04-15T11:07:27.550Z,4.90
2018-04-15T11:08:27.542Z,5.20
2018-04-15T11:09:27.536Z,5.10
2018-04-15T11:10:27.599Z,7.10
2018-04-15T11:11:27.528Z,5.20
2018-04-15T11:12:27.528Z,6.30
2018-04-15T11:13:27.524Z,4.40
2018-04-15T11:14:27.519Z,6.80
2018-04-15T11:15:27.527Z,6.10
2018-04-15T11:16:27.507Z,6.20
2018-04-15T11:17:27.496Z,5.70
2018-04-15T11:18:27.498Z,5.60
2018-04-15T11:19:27.493Z,6.80
2018-04-15T11:20:27.487Z,5.10
2018-04-15T11:21:27.484Z,5.50
2018-04-15T11:22:27.483Z,4.30
2018-04-15T11:23:27.584Z,4.70
2018-04-15T11:24:27.467Z,4.40
2018-04-15T11:25:27.456Z,4.10
2018-04-15T11:26:27.480Z,4.40
2018-04-15T11:27:27.450Z,4.40
2018-04-15T11:28:27.446Z,4.30
2018-04-15T11:29:27.445Z,4.50
2018-04-15T11:30:27.437Z,4.10
2018-04-15T11:31:27.434Z,5.60
2018-04-15T11:32:27.462Z,5.70
2018-04-15T11:33:27.429Z,4.40
2018-04-15T11:34:27.423Z,3.90
2018-04-15T11:35:27.423Z,3.60
2018-04-15T11:36:27.449Z,4.20
2018-04-15T11:37:27.416Z,4.40
2018-04-15T11:38:27.469Z,5.00
2018-04-15T11:39:27.405Z,5.20
2018-04-15T11:40:27.408Z,3.80
2018-04-15T11:41:27.400Z,4.00
2018-04-15T11:42:27.419Z,4.20
2018-04-15T11:43:27.391Z,4.20
2018-04-15T11:44:27.391Z,4.30
2018-04-15T11:45:27.393Z,2.80
2018-04-15T11:46:27.391Z,3.40
2018-04-15T11:47:27.385Z,3.50
2018-04-15T11:48:27.387Z,4.10
2018-04-15T11:49:27.377Z,3.80
2018-04-15T11:50:27.375Z,3.80
2018-04-15T11:51:27.382Z,4.50
2018-04-15T11:52:27.368Z,4.20
2018-04-15T11:53:27.362Z,4.60
2018-04-15T11:54:27.361Z,4.10
2018-04-15T11:55:27.368Z,4.60
2018-04-15T11:56:27.350Z,7.90
2018-04-15T11:57:27.452Z,4.60
2018-04-15T11:58:27.346Z,4.30
2018-04-15T11:59:27.338Z,4.00
2018-04-15T12:00:27.326Z,4.60
2018-04-15T12:01:27.323Z,6.60
2018-04-15T12:02:27.321Z,4.30
2018-04-15T12:03:27.311Z,4.40
2018-04-15T12:04:27.300Z,4.00
2018-04-15T12:05:27.289Z,5.20
2018-04-15T12:06:27.292Z,4.40
2018-04-15T12:07:27.393Z,5.40
2018-04-15T12:08:27.267Z,6.50
2018-04-15T12:09:27.259Z,5.20
2018-04-15T12:10:27.262Z,5.40
2018-04-15T12:11:27.249Z,5.30
2018-04-15T12:12:27.232Z,6.10
2018-04-15T12:13:27.228Z,5.50
2018-04-15T12:14:27.221Z,7.50
2018-04-15T12:15:27.217Z,9.40
2018-04-15T12:16:27.209Z,5.80
2018-04-15T12:17:27.200Z,5.70
2018-04-15T12:18:27.199Z,6.50
2018-04-15T12:19:27.177Z,5.70
2018-04-15T12:20:27.168Z,5.40
2018-04-15T12:21:27.168Z,6.50
2018-04-15T12:22:27.150Z,5.70
2018-04-15T12:23:27.158Z,5.50
2018-04-15T12:24:27.149Z,6.40
2018-04-15T12:25:27.122Z,7.10
2018-04-15T12:26:27.127Z,6.70
2018-04-15T12:27:27.111Z,5.50
2018-04-15T12:28:27.098Z,6.50
2018-04-15T12:29:27.113Z,7.40
2018-04-15T12:30:27.080Z,8.20
2018-04-15T12:31:27.074Z,5.70
2018-04-15T12:32:27.063Z,6.00
2018-04-15T12:33:27.063Z,7.60
2018-04-15T12:34:27.077Z,5.70
2018-04-15T12:35:27.050Z,6.10
2018-04-15T12:36:27.071Z,6.90
2018-04-15T12:37:27.020Z,5.20
2018-04-15T12:38:27.014Z,5.40
2018-04-15T12:39:27.014Z,6.10
2018-04-15T12:40:26.993Z,5.70
2018-04-15T12:41:26.994Z,5.60
2018-04-15T12:42:26.977Z,4.60
2018-04-15T12:43:26.970Z,6.50
2018-04-15T12:44:26.962Z,4.70
2018-04-15T12:45:26.978Z,4.70
2018-04-15T12:46:26.949Z,4.80
2018-04-15T12:47:26.949Z,4.80
2018-04-15T12:48:26.921Z,5.00
2018-04-15T12:49:26.921Z,6.20
2018-04-15T12:50:26.915Z,6.60